PASN Airport (St Paul Island) Information

FAA: SNP - ICAO: PASN

PASN Airport Location

State Alaska
County Aleutians West
City St Paul Island
PASN Airport is 3 miles northeast of St Paul Island, AK.
Latitude 57-09-58.7000N
Longitude 170-13-21.2000W
Elevation 66ft

PASN Airport METARs

METAR PASN 251653Z AUTO 35013KT 10SM FEW035 OVC050 01/M06 A2958 RMK AO2 SLP016 T00061056 TSNO $
Altimeter 29.58"
Temperature 0.6°C (33.1°F)
Wind 350° at 13KT
Clouds few at 3,500ft overcast at 5,000ft
Visibility 10.0mi
Time observed: 2021-10-25T16:53:00Z

PASN Airport Details

Status Operational
Activation N/A
Ownership Public
Usage Public
Chart DUTCH HARBOR
ATC on-site No
Beacon schedule sunset-sunrise
Beacon color clear green

PASN Airport Contacts

Owner ALASKA DOT&PF SOUTHCOAST REGION
Owner address PO BOX 112506, JUNEAU, AK 99811-2506
Owner phone (907) 465-1779
Manager JON TAYLOR
Manager address BOX 250, DILLINGHAM, AK 99576
Manager phone 907-842-5511

PASN Airport (St Paul Island) Radio Frequencies

PASN (Airport) Radio Frequencies

UNICOM N/A
Common traffic advisory frequency (CTAF) 122.3